Don's Testing Zone


Current Conditions
weather data
source:

National Weather Service
Clear Russellville, AR
Clear, 37°F
Sunday, February 25, 2018 8:53 PM CST
Temperature: 37°F/3°C
Humidity: 100%
Barometer: 30.11in/1019.3mb Barometer Steady
Wind: N at 18mph/30kmh
View other cities:
Searcy | Little Rock | Hot Springs | Russellville | More...
Astronomical Conditions (Clear Sky Clock)
Searcy Clear Sky Clock
Find more weather in Little Rock, AR
    

Radar Images

NWS
    Wx Underground

KARK
   

NWS METAR weather data

ADDS - METARS form results





Aviation Digital Data Service (ADDS) Output produced by METARs form (0310 UTC 26 February 2018) found at http://aviationweather.gov/adds/metars/ 

KRUE 260253Z AUTO 00000KT 10SM CLR 03/03 A3011 RMK AO2 SLP193 T00330028 53016 $

KRUE 260153Z AUTO 00000KT 10SM CLR 04/03 A3008 RMK AO2 SLP186 T00390028 $

KRUE 260053Z AUTO 00000KT 10SM CLR 06/04 A3008 RMK AO2 SLP185 T00610039 $

KRUE 252353Z AUTO 09003KT 10SM CLR 11/02 A3006 RMK AO2 SLP177 T01110017 1012220100 55011 $

KRUE 252253Z AUTO 11005KT 10SM CLR 12/01 A3005 RMK AO2 SLP172 T01220011 $

KRUE 252153Z AUTO 11007KT 10SM CLR 12/02 A3006 RMK AO2 SLP178 T01170017 $

KRUE 252053Z AUTO VRB04KT 10SM CLR 12/02 A3009 RMK AO2 SLP187 T01170017 58009 $

KRUE 251953Z AUTO 15004KT 10SM CLR 11/01 A3011 RMK AO2 SLP193 T01060011 $

KRUE 251853Z AUTO 12006KT 10SM CLR 11/01 A3011 RMK AO2 SLP193 T01110011 $

KRUE 251753Z AUTO 00000KT 10SM CLR 10/01 A3012 RMK AO2 SLP196 T01000006 1010020011 58006 $

KRUE 251653Z AUTO 09004KT 10SM CLR 09/01 A3013 RMK AO2 SLP201 T00940006 $

KRUE 251553Z AUTO 11004KT 10SM CLR 09/02 A3015 RMK AO2 SLP205 T00890022 $

KRUE 251453Z AUTO 00000KT 9SM CLR 06/05 A3014 RMK AO2 SLP202 T00560050 51019 $

KRUE 251353Z AUTO 00000KT 6SM BR CLR 03/03 A3013 RMK AO2 SLP201 T00280028 $

KRUE 251253Z AUTO 00000KT 6SM BR CLR 02/02 A3010 RMK AO2 SLP190 T00170017 $

KRUE 251153Z AUTO 00000KT 6SM BR CLR 02/02 A3008 RMK AO2 SLP183 70152 T0022001710083 20017 53015 $

KRUE 251053Z AUTO 00000KT 5SM BR CLR 02/02 A3004 RMK AO2 SLP170 T00220017 $

KRUE 250953Z AUTO 00000KT 4SM BR CLR 03/02 A3003 RMK AO2 SLP165 T00280022 $

KRUE 250853Z AUTO 00000KT 7SM CLR 03/03 A3004 RMK AO2 SLP168 T00330028 50007 $

KRUE 250753Z AUTO 31003KT 10SM CLR 06/04 A3004 RMK AO2 SLP169 T00610039 $

KRUE 250653Z AUTO 28006KT 10SM CLR 07/04 A3003 RMK AO2 SLP166 T00670044 $

KRUE 250553Z AUTO 29006KT 10SM CLR 08/05 A3001 RMK AO2 SLP160 T00830050 1013920083 401720083 53033 $

KRUE 250453Z AUTO 28009KT 10SM CLR 10/07 A2998 RMK AO2 SLP147 T01000067 $

KRUE 250353Z AUTO 27008KT 10SM CLR 10/08 A2994 RMK AO2 SLP136 T01000083 $